Observations for EXETER AIRPORT, United Kingdom (EGTE)

EGTE 192020Z VRB02KT CAVOK 07/06 Q1005  
EGTE 191950Z 18005KT CAVOK 07/06 Q1004  
EGTE 191920Z 21004KT 9999 FEW040 07/05 Q1004
EGTE 191850Z VRB03KT 9999 FEW040 09/07 Q1004
EGTE 191820Z 23003KT 9999 FEW040 10/07 Q1004
EGTE 191750Z 29001KT 9999 FEW040 09/06 Q1003
EGTE 191720Z VRB02KT 9999 FEW040 11/06 Q1003
EGTE 191650Z 27004KT 9999 FEW040 13/06 Q1003
EGTE 191620Z 29006KT 9999 FEW040CB 14/07 Q1003  
EGTE 191550Z 29005KT 240V350 9999 FEW030TCU 16/08 Q1002 
EGTE 191520Z 27006KT 240V300 9999 FEW010 FEW030TCU 13/07 Q1002  
EGTE 191450Z 29006KT 250V320 9999 FEW010 SCT030 14/08 Q1002 
EGTE 191420Z 28007KT 240V320 9999 VCSH FEW010 SCT030 14/07 Q1002
EGTE 191350Z 27006KT 220V300 9999 SCT030 16/09 Q1002
EGTE 191320Z 32007KT 9999 SCT030 14/09 Q1002
EGTE 191250Z 27005KT 230V330 9999 SCT025 15/09 Q1001
EGTE 191220Z 27008KT 240V310 9999 SCT025 13/07 Q1001
EGTE 191150Z 28007KT 260V330 9999 SCT025 14/10 Q1001
EGTE 191120Z 28007KT 240V320 9999 SCT025 14/10 Q1001
EGTE 191050Z 27009KT 230V300 9999 FEW015 FEW030TCU 13/08 Q1001  
EGTE 191020Z 27008KT 250V310 9999 FEW015 FEW030CB 12/07 Q1001   
EGTE 190950Z 23005KT 200V290 9999 FEW015 FEW030CB 13/10 Q1001   
EGTE 190920Z 21007KT 9999 FEW015 FEW025CB 12/09 Q1000   
EGTE 190850Z 19004KT 9999 FEW025CB 11/09 Q1000  
EGTE 190820Z 18003KT 9999 FEW025CB 10/08 Q1000  
EGTE 190750Z 18004KT 9999 FEW025CB 09/09 Q1000  
EGTE 190720Z 17006KT 9999 FEW025CB 07/06 Q1000  
EGTE 190650Z VRB02KT 9999 FEW025CB 07/07 Q1000  
EGTE 190620Z VRB03KT 9999 FEW025CB 08/07 Q0999  
EGTE 190550Z 19006KT 9999 FEW035 08/08 Q0999
EGTE 190520Z 20005KT 9999 FEW035 08/07 Q0999
EGTE 190450Z 21006KT 9999 FEW035 08/07 Q0998
EGTE 190420Z 21008KT 9999 FEW035 09/08 Q0998
EGTE 190050Z 20008KT 9999 FEW025 11/09 Q0998
EGTE 190020Z 21007KT 9999 FEW022 10/09 Q0998
EGTE 182350Z 22007KT 9999 FEW022 10/07 Q0998
EGTE 182320Z 21007KT 9999 FEW022 11/09 Q0998
EGTE 182250Z 20008KT 9999 FEW022 11/08 Q0998
EGTE 182220Z 19007KT 9999 FEW022 11/09 Q0998
EGTE 182150Z 20007KT 9999 FEW022 10/08 Q0998
EGTE 182120Z 18006KT 9999 FEW025 10/08 Q0998
EGTE 182050Z 19008KT 9999 FEW025 11/09 Q0998
EGTE 182020Z 20008KT 9999 FEW025 11/08 Q0998
EGTE 181950Z 19008KT 9999 FEW030 11/09 Q0999